Terminal Aerodrome Forecast
Issued by NWS

Home | Current Version | Previous Version | Text Only | Print | Product List | Glossary On
Versions: 1 2 3 4 5 6 7 8 9 10 11 12 13 14 15 16 17 18 19 20 21 22 23 24 25 26 27 28 29 30 31
000
FTUS43 KLSX 222100 AAA
TAFSUS
TAF AMD
KSUS 222115Z 2221/2318 21010KT P6SM VCSH SCT020 OVC035
     FM222230 19012KT P6SM VCSH OVC025
      TEMPO 2223/2302 5SM -SHRA OVC015
     FM230900 18010KT 5SM -SHRA SCT009 OVC015
     FM231500 15010KT 3SM -RA OVC007=

USA.gov is the U.S. government's official web portal to all federal, state and local government web resources and services.